sensor_id;sensor_type;location;lat;lon;timestamp;P1;durP1;ratioP1;P2;durP2;ratioP2
33246;SDS011;19606;50.108;19.804;2022-12-07T00:01:32;18.60;;;10.48;;
33246;SDS011;19606;50.108;19.804;2022-12-07T00:04:06;26.70;;;12.90;;
33246;SDS011;19606;50.108;19.804;2022-12-07T00:06:34;20.85;;;10.50;;
33246;SDS011;19606;50.108;19.804;2022-12-07T00:09:11;20.98;;;11.13;;
33246;SDS011;19606;50.108;19.804;2022-12-07T00:11:38;23.20;;;11.35;;
33246;SDS011;19606;50.108;19.804;2022-12-07T00:14:06;16.50;;;9.82;;
33246;SDS011;19606;50.108;19.804;2022-12-07T00:16:33;23.88;;;12.10;;
33246;SDS011;19606;50.108;19.804;2022-12-07T00:18:59;21.80;;;11.82;;
33246;SDS011;19606;50.108;19.804;2022-12-07T00:21:26;24.02;;;12.50;;
33246;SDS011;19606;50.108;19.804;2022-12-07T00:23:54;20.40;;;11.73;;
33246;SDS011;19606;50.108;19.804;2022-12-07T00:26:21;20.75;;;12.32;;
33246;SDS011;19606;50.108;19.804;2022-12-07T00:28:51;18.33;;;11.43;;
33246;SDS011;19606;50.108;19.804;2022-12-07T00:31:19;21.60;;;11.68;;
33246;SDS011;19606;50.108;19.804;2022-12-07T00:33:47;19.02;;;11.88;;
33246;SDS011;19606;50.108;19.804;2022-12-07T00:36:14;20.35;;;11.23;;
33246;SDS011;19606;50.108;19.804;2022-12-07T00:38:42;15.80;;;7.68;;
33246;SDS011;19606;50.108;19.804;2022-12-07T00:41:12;16.42;;;9.60;;
33246;SDS011;19606;50.108;19.804;2022-12-07T00:43:40;11.63;;;7.47;;
33246;SDS011;19606;50.108;19.804;2022-12-07T00:46:06;17.05;;;8.77;;
33246;SDS011;19606;50.108;19.804;2022-12-07T00:48:32;21.80;;;10.80;;
33246;SDS011;19606;50.108;19.804;2022-12-07T00:50:58;19.50;;;11.63;;
33246;SDS011;19606;50.108;19.804;2022-12-07T00:53:24;22.20;;;11.73;;
33246;SDS011;19606;50.108;19.804;2022-12-07T00:55:50;17.67;;;10.18;;
33246;SDS011;19606;50.108;19.804;2022-12-07T00:58:17;19.40;;;10.13;;
33246;SDS011;19606;50.108;19.804;2022-12-07T01:00:43;18.25;;;10.70;;
33246;SDS011;19606;50.108;19.804;2022-12-07T01:03:10;17.45;;;10.05;;
33246;SDS011;19606;50.108;19.804;2022-12-07T01:05:37;19.80;;;10.50;;
33246;SDS011;19606;50.108;19.804;2022-12-07T01:08:03;16.67;;;8.85;;
33246;SDS011;19606;50.108;19.804;2022-12-07T01:10:29;19.77;;;10.13;;
33246;SDS011;19606;50.108;19.804;2022-12-07T01:12:56;19.50;;;10.57;;
33246;SDS011;19606;50.108;19.804;2022-12-07T01:15:23;20.08;;;10.50;;
33246;SDS011;19606;50.108;19.804;2022-12-07T01:17:49;18.77;;;10.50;;
33246;SDS011;19606;50.108;19.804;2022-12-07T01:20:15;16.33;;;9.27;;
33246;SDS011;19606;50.108;19.804;2022-12-07T01:22:41;16.80;;;8.88;;
33246;SDS011;19606;50.108;19.804;2022-12-07T01:25:08;15.57;;;9.00;;
33246;SDS011;19606;50.108;19.804;2022-12-07T01:27:35;15.43;;;8.48;;
33246;SDS011;19606;50.108;19.804;2022-12-07T01:30:02;14.70;;;9.02;;
33246;SDS011;19606;50.108;19.804;2022-12-07T01:32:29;16.30;;;8.52;;
33246;SDS011;19606;50.108;19.804;2022-12-07T01:34:55;14.52;;;8.02;;
33246;SDS011;19606;50.108;19.804;2022-12-07T01:37:21;13.07;;;8.20;;
33246;SDS011;19606;50.108;19.804;2022-12-07T01:39:50;11.93;;;7.35;;
33246;SDS011;19606;50.108;19.804;2022-12-07T01:42:17;11.68;;;6.80;;
33246;SDS011;19606;50.108;19.804;2022-12-07T01:47:43;14.65;;;7.70;;
33246;SDS011;19606;50.108;19.804;2022-12-07T01:52:39;13.32;;;7.35;;
33246;SDS011;19606;50.108;19.804;2022-12-07T01:55:08;12.80;;;7.82;;
33246;SDS011;19606;50.108;19.804;2022-12-07T01:57:37;17.23;;;8.10;;
33246;SDS011;19606;50.108;19.804;2022-12-07T02:00:10;13.63;;;7.90;;
33246;SDS011;19606;50.108;19.804;2022-12-07T02:02:44;17.05;;;8.43;;
33246;SDS011;19606;50.108;19.804;2022-12-07T02:05:29;14.10;;;7.72;;
33246;SDS011;19606;50.108;19.804;2022-12-07T02:07:56;12.27;;;7.72;;
33246;SDS011;19606;50.108;19.804;2022-12-07T02:10:27;11.85;;;7.15;;
33246;SDS011;19606;50.108;19.804;2022-12-07T02:12:56;13.40;;;7.80;;
33246;SDS011;19606;50.108;19.804;2022-12-07T02:23:39;14.48;;;8.27;;
33246;SDS011;19606;50.108;19.804;2022-12-07T02:26:20;16.30;;;8.25;;
33246;SDS011;19606;50.108;19.804;2022-12-07T02:34:56;17.88;;;8.93;;
33246;SDS011;19606;50.108;19.804;2022-12-07T02:37:58;15.82;;;9.38;;
33246;SDS011;19606;50.108;19.804;2022-12-07T02:43:20;20.90;;;11.32;;
33246;SDS011;19606;50.108;19.804;2022-12-07T02:46:13;17.10;;;10.43;;
33246;SDS011;19606;50.108;19.804;2022-12-07T02:48:50;16.02;;;9.68;;
33246;SDS011;19606;50.108;19.804;2022-12-07T02:51:18;18.73;;;10.43;;
33246;SDS011;19606;50.108;19.804;2022-12-07T02:53:44;20.60;;;9.38;;
33246;SDS011;19606;50.108;19.804;2022-12-07T03:07:43;20.45;;;10.73;;
33246;SDS011;19606;50.108;19.804;2022-12-07T03:15:47;20.08;;;10.63;;
33246;SDS011;19606;50.108;19.804;2022-12-07T03:18:24;23.88;;;11.32;;
33246;SDS011;19606;50.108;19.804;2022-12-07T03:20:55;21.88;;;12.00;;
33246;SDS011;19606;50.108;19.804;2022-12-07T03:23:26;28.13;;;12.68;;
33246;SDS011;19606;50.108;19.804;2022-12-07T03:25:55;24.50;;;12.13;;
33246;SDS011;19606;50.108;19.804;2022-12-07T03:28:24;23.95;;;12.43;;
33246;SDS011;19606;50.108;19.804;2022-12-07T03:30:56;26.65;;;12.65;;
33246;SDS011;19606;50.108;19.804;2022-12-07T03:33:49;27.83;;;12.77;;
33246;SDS011;19606;50.108;19.804;2022-12-07T03:36:28;24.08;;;13.25;;
33246;SDS011;19606;50.108;19.804;2022-12-07T03:38:58;33.88;;;13.90;;
33246;SDS011;19606;50.108;19.804;2022-12-07T03:41:33;25.25;;;13.10;;
33246;SDS011;19606;50.108;19.804;2022-12-07T03:44:02;29.02;;;14.98;;
33246;SDS011;19606;50.108;19.804;2022-12-07T03:49:28;31.25;;;14.85;;
33246;SDS011;19606;50.108;19.804;2022-12-07T03:52:22;27.77;;;14.25;;
33246;SDS011;19606;50.108;19.804;2022-12-07T03:55:14;24.75;;;12.55;;
33246;SDS011;19606;50.108;19.804;2022-12-07T03:57:46;28.38;;;13.27;;
33246;SDS011;19606;50.108;19.804;2022-12-07T04:00:13;33.70;;;15.32;;
33246;SDS011;19606;50.108;19.804;2022-12-07T04:02:40;29.98;;;15.93;;
33246;SDS011;19606;50.108;19.804;2022-12-07T04:05:08;36.35;;;17.60;;
33246;SDS011;19606;50.108;19.804;2022-12-07T04:07:35;30.48;;;15.68;;
33246;SDS011;19606;50.108;19.804;2022-12-07T04:10:00;31.33;;;15.32;;
33246;SDS011;19606;50.108;19.804;2022-12-07T04:12:26;36.00;;;15.65;;
33246;SDS011;19606;50.108;19.804;2022-12-07T04:14:52;29.13;;;15.00;;
33246;SDS011;19606;50.108;19.804;2022-12-07T04:17:17;32.20;;;15.95;;
33246;SDS011;19606;50.108;19.804;2022-12-07T04:19:43;28.15;;;12.68;;
33246;SDS011;19606;50.108;19.804;2022-12-07T04:22:09;37.95;;;18.00;;
33246;SDS011;19606;50.108;19.804;2022-12-07T04:24:34;34.17;;;17.40;;
33246;SDS011;19606;50.108;19.804;2022-12-07T04:27:00;36.25;;;16.88;;
33246;SDS011;19606;50.108;19.804;2022-12-07T04:29:26;37.63;;;16.67;;
33246;SDS011;19606;50.108;19.804;2022-12-07T04:31:52;39.47;;;18.60;;
33246;SDS011;19606;50.108;19.804;2022-12-07T04:34:18;42.78;;;18.40;;
33246;SDS011;19606;50.108;19.804;2022-12-07T04:36:44;38.15;;;17.75;;
33246;SDS011;19606;50.108;19.804;2022-12-07T04:39:18;39.72;;;18.73;;
33246;SDS011;19606;50.108;19.804;2022-12-07T04:41:48;45.33;;;19.73;;
33246;SDS011;19606;50.108;19.804;2022-12-07T04:44:15;39.75;;;18.83;;
33246;SDS011;19606;50.108;19.804;2022-12-07T04:46:42;41.88;;;18.92;;
33246;SDS011;19606;50.108;19.804;2022-12-07T04:49:08;44.10;;;19.63;;
33246;SDS011;19606;50.108;19.804;2022-12-07T04:51:34;42.15;;;19.17;;
33246;SDS011;19606;50.108;19.804;2022-12-07T04:53:59;42.45;;;19.75;;
33246;SDS011;19606;50.108;19.804;2022-12-07T04:56:25;40.83;;;20.08;;
33246;SDS011;19606;50.108;19.804;2022-12-07T04:58:51;42.15;;;19.90;;
33246;SDS011;19606;50.108;19.804;2022-12-07T05:01:18;39.05;;;19.05;;
33246;SDS011;19606;50.108;19.804;2022-12-07T05:03:44;40.42;;;18.65;;
33246;SDS011;19606;50.108;19.804;2022-12-07T05:06:10;38.35;;;16.75;;
33246;SDS011;19606;50.108;19.804;2022-12-07T05:08:37;18.77;;;9.57;;
33246;SDS011;19606;50.108;19.804;2022-12-07T05:11:03;28.00;;;13.98;;
33246;SDS011;19606;50.108;19.804;2022-12-07T05:13:30;27.88;;;12.80;;
33246;SDS011;19606;50.108;19.804;2022-12-07T05:15:56;29.95;;;15.95;;
33246;SDS011;19606;50.108;19.804;2022-12-07T05:18:22;29.55;;;14.82;;
33246;SDS011;19606;50.108;19.804;2022-12-07T05:20:48;32.55;;;15.93;;
33246;SDS011;19606;50.108;19.804;2022-12-07T05:23:14;30.67;;;13.90;;
33246;SDS011;19606;50.108;19.804;2022-12-07T05:25:40;27.80;;;13.75;;
33246;SDS011;19606;50.108;19.804;2022-12-07T05:28:05;27.02;;;13.48;;
33246;SDS011;19606;50.108;19.804;2022-12-07T05:30:31;26.58;;;13.48;;
33246;SDS011;19606;50.108;19.804;2022-12-07T05:32:57;20.48;;;9.05;;
33246;SDS011;19606;50.108;19.804;2022-12-07T05:35:23;22.48;;;11.52;;
33246;SDS011;19606;50.108;19.804;2022-12-07T05:37:49;15.82;;;8.93;;
33246;SDS011;19606;50.108;19.804;2022-12-07T05:40:15;21.85;;;11.23;;
33246;SDS011;19606;50.108;19.804;2022-12-07T05:42:41;23.23;;;10.65;;
33246;SDS011;19606;50.108;19.804;2022-12-07T05:45:08;15.93;;;8.77;;
33246;SDS011;19606;50.108;19.804;2022-12-07T05:47:34;23.20;;;11.55;;
33246;SDS011;19606;50.108;19.804;2022-12-07T05:50:01;22.77;;;11.23;;
33246;SDS011;19606;50.108;19.804;2022-12-07T05:52:26;23.20;;;11.50;;
33246;SDS011;19606;50.108;19.804;2022-12-07T05:54:52;18.98;;;9.60;;
33246;SDS011;19606;50.108;19.804;2022-12-07T05:57:18;19.10;;;10.10;;
33246;SDS011;19606;50.108;19.804;2022-12-07T05:59:44;19.85;;;10.00;;
33246;SDS011;19606;50.108;19.804;2022-12-07T06:02:11;19.50;;;8.65;;
33246;SDS011;19606;50.108;19.804;2022-12-07T06:04:40;18.52;;;9.80;;
33246;SDS011;19606;50.108;19.804;2022-12-07T06:07:10;21.05;;;11.18;;
33246;SDS011;19606;50.108;19.804;2022-12-07T06:09:37;12.80;;;7.22;;
33246;SDS011;19606;50.108;19.804;2022-12-07T06:12:03;16.45;;;8.38;;
33246;SDS011;19606;50.108;19.804;2022-12-07T06:14:47;24.27;;;12.40;;
33246;SDS011;19606;50.108;19.804;2022-12-07T06:17:13;33.72;;;14.77;;
33246;SDS011;19606;50.108;19.804;2022-12-07T06:19:40;28.63;;;13.55;;
33246;SDS011;19606;50.108;19.804;2022-12-07T06:22:06;17.63;;;6.68;;
33246;SDS011;19606;50.108;19.804;2022-12-07T06:24:33;20.60;;;10.35;;
33246;SDS011;19606;50.108;19.804;2022-12-07T06:26:58;17.30;;;9.35;;
33246;SDS011;19606;50.108;19.804;2022-12-07T06:29:24;17.65;;;8.32;;
33246;SDS011;19606;50.108;19.804;2022-12-07T06:31:50;22.95;;;11.88;;
33246;SDS011;19606;50.108;19.804;2022-12-07T06:34:17;21.27;;;11.25;;
33246;SDS011;19606;50.108;19.804;2022-12-07T06:36:45;23.77;;;11.38;;
33246;SDS011;19606;50.108;19.804;2022-12-07T06:39:16;27.08;;;13.15;;
33246;SDS011;19606;50.108;19.804;2022-12-07T06:41:42;23.42;;;10.02;;
33246;SDS011;19606;50.108;19.804;2022-12-07T06:44:08;29.13;;;12.98;;
33246;SDS011;19606;50.108;19.804;2022-12-07T06:46:33;27.63;;;12.45;;
33246;SDS011;19606;50.108;19.804;2022-12-07T06:49:00;19.15;;;9.40;;
33246;SDS011;19606;50.108;19.804;2022-12-07T06:51:26;17.38;;;8.40;;
33246;SDS011;19606;50.108;19.804;2022-12-07T06:53:52;19.58;;;9.98;;
33246;SDS011;19606;50.108;19.804;2022-12-07T06:56:18;26.65;;;12.32;;
33246;SDS011;19606;50.108;19.804;2022-12-07T06:58:44;22.92;;;11.95;;
33246;SDS011;19606;50.108;19.804;2022-12-07T07:01:11;19.83;;;10.75;;
33246;SDS011;19606;50.108;19.804;2022-12-07T07:03:42;23.90;;;12.27;;
33246;SDS011;19606;50.108;19.804;2022-12-07T07:06:09;15.23;;;7.97;;
33246;SDS011;19606;50.108;19.804;2022-12-07T07:08:35;19.30;;;8.88;;
33246;SDS011;19606;50.108;19.804;2022-12-07T07:11:02;23.48;;;11.98;;
33246;SDS011;19606;50.108;19.804;2022-12-07T07:13:28;24.13;;;11.05;;
33246;SDS011;19606;50.108;19.804;2022-12-07T07:15:54;22.13;;;11.65;;
33246;SDS011;19606;50.108;19.804;2022-12-07T07:18:20;26.70;;;13.00;;
33246;SDS011;19606;50.108;19.804;2022-12-07T07:20:47;30.20;;;15.10;;
33246;SDS011;19606;50.108;19.804;2022-12-07T07:23:12;26.17;;;12.10;;
33246;SDS011;19606;50.108;19.804;2022-12-07T07:25:38;32.63;;;15.20;;
33246;SDS011;19606;50.108;19.804;2022-12-07T07:28:04;27.58;;;11.23;;
33246;SDS011;19606;50.108;19.804;2022-12-07T07:30:29;33.03;;;14.65;;
33246;SDS011;19606;50.108;19.804;2022-12-07T07:32:56;21.42;;;9.57;;
33246;SDS011;19606;50.108;19.804;2022-12-07T07:35:23;25.60;;;12.35;;
33246;SDS011;19606;50.108;19.804;2022-12-07T07:37:50;25.73;;;12.23;;
33246;SDS011;19606;50.108;19.804;2022-12-07T07:40:15;25.75;;;11.88;;
33246;SDS011;19606;50.108;19.804;2022-12-07T07:42:41;20.70;;;10.50;;
33246;SDS011;19606;50.108;19.804;2022-12-07T07:45:07;22.30;;;10.45;;
33246;SDS011;19606;50.108;19.804;2022-12-07T07:47:33;25.70;;;11.10;;
33246;SDS011;19606;50.108;19.804;2022-12-07T07:49:59;16.50;;;8.80;;
33246;SDS011;19606;50.108;19.804;2022-12-07T07:52:25;23.13;;;11.00;;
33246;SDS011;19606;50.108;19.804;2022-12-07T07:54:51;24.45;;;12.77;;
33246;SDS011;19606;50.108;19.804;2022-12-07T07:57:17;15.65;;;6.88;;
33246;SDS011;19606;50.108;19.804;2022-12-07T07:59:43;19.85;;;9.60;;
33246;SDS011;19606;50.108;19.804;2022-12-07T08:02:15;15.93;;;7.45;;
33246;SDS011;19606;50.108;19.804;2022-12-07T08:04:42;15.10;;;7.65;;
33246;SDS011;19606;50.108;19.804;2022-12-07T08:07:08;19.83;;;9.20;;
33246;SDS011;19606;50.108;19.804;2022-12-07T08:09:34;16.60;;;9.13;;
33246;SDS011;19606;50.108;19.804;2022-12-07T08:11:59;21.48;;;10.48;;
33246;SDS011;19606;50.108;19.804;2022-12-07T08:14:25;15.57;;;7.25;;
33246;SDS011;19606;50.108;19.804;2022-12-07T08:16:52;18.70;;;8.73;;
33246;SDS011;19606;50.108;19.804;2022-12-07T08:19:18;16.55;;;8.55;;
33246;SDS011;19606;50.108;19.804;2022-12-07T08:21:43;17.25;;;8.98;;
33246;SDS011;19606;50.108;19.804;2022-12-07T08:24:09;14.85;;;6.68;;
33246;SDS011;19606;50.108;19.804;2022-12-07T08:26:35;11.23;;;5.65;;
33246;SDS011;19606;50.108;19.804;2022-12-07T08:29:01;16.45;;;7.88;;
33246;SDS011;19606;50.108;19.804;2022-12-07T08:31:26;16.55;;;7.75;;
33246;SDS011;19606;50.108;19.804;2022-12-07T08:33:53;17.67;;;9.55;;
33246;SDS011;19606;50.108;19.804;2022-12-07T08:36:19;15.13;;;7.00;;
33246;SDS011;19606;50.108;19.804;2022-12-07T08:38:47;11.90;;;6.55;;
33246;SDS011;19606;50.108;19.804;2022-12-07T08:41:13;18.58;;;8.75;;
33246;SDS011;19606;50.108;19.804;2022-12-07T08:43:39;10.05;;;4.78;;
33246;SDS011;19606;50.108;19.804;2022-12-07T08:46:10;16.88;;;8.30;;
33246;SDS011;19606;50.108;19.804;2022-12-07T08:48:52;19.73;;;9.90;;
33246;SDS011;19606;50.108;19.804;2022-12-07T08:51:21;21.02;;;10.80;;
33246;SDS011;19606;50.108;19.804;2022-12-07T08:53:48;22.05;;;9.98;;
33246;SDS011;19606;50.108;19.804;2022-12-07T08:56:16;20.02;;;9.48;;
33246;SDS011;19606;50.108;19.804;2022-12-07T08:58:41;25.05;;;12.00;;
33246;SDS011;19606;50.108;19.804;2022-12-07T09:01:08;18.88;;;10.52;;
33246;SDS011;19606;50.108;19.804;2022-12-07T09:03:34;17.50;;;9.57;;
33246;SDS011;19606;50.108;19.804;2022-12-07T09:06:00;20.13;;;11.43;;
33246;SDS011;19606;50.108;19.804;2022-12-07T09:08:26;16.98;;;9.35;;
33246;SDS011;19606;50.108;19.804;2022-12-07T09:10:58;18.52;;;10.55;;
33246;SDS011;19606;50.108;19.804;2022-12-07T09:13:23;13.40;;;8.02;;
33246;SDS011;19606;50.108;19.804;2022-12-07T09:15:49;21.13;;;11.50;;
33246;SDS011;19606;50.108;19.804;2022-12-07T09:18:14;19.08;;;10.05;;
33246;SDS011;19606;50.108;19.804;2022-12-07T09:20:44;13.32;;;6.65;;
33246;SDS011;19606;50.108;19.804;2022-12-07T09:23:09;17.45;;;9.07;;
33246;SDS011;19606;50.108;19.804;2022-12-07T09:25:35;15.88;;;7.80;;
33246;SDS011;19606;50.108;19.804;2022-12-07T09:28:01;17.70;;;9.68;;
33246;SDS011;19606;50.108;19.804;2022-12-07T09:30:27;14.48;;;8.25;;
33246;SDS011;19606;50.108;19.804;2022-12-07T09:32:53;19.63;;;9.45;;
33246;SDS011;19606;50.108;19.804;2022-12-07T09:35:20;20.23;;;11.05;;
33246;SDS011;19606;50.108;19.804;2022-12-07T09:37:46;15.40;;;9.73;;
33246;SDS011;19606;50.108;19.804;2022-12-07T09:40:12;15.73;;;9.32;;
33246;SDS011;19606;50.108;19.804;2022-12-07T09:42:39;21.05;;;12.45;;
33246;SDS011;19606;50.108;19.804;2022-12-07T09:45:19;17.50;;;10.77;;
33246;SDS011;19606;50.108;19.804;2022-12-07T09:47:51;27.48;;;14.38;;
33246;SDS011;19606;50.108;19.804;2022-12-07T09:50:21;21.95;;;11.63;;
33246;SDS011;19606;50.108;19.804;2022-12-07T09:52:50;20.20;;;10.00;;
33246;SDS011;19606;50.108;19.804;2022-12-07T09:55:25;18.77;;;11.52;;
33246;SDS011;19606;50.108;19.804;2022-12-07T09:57:53;19.30;;;10.02;;
33246;SDS011;19606;50.108;19.804;2022-12-07T10:00:20;15.27;;;8.75;;
33246;SDS011;19606;50.108;19.804;2022-12-07T10:02:49;13.35;;;7.80;;
33246;SDS011;19606;50.108;19.804;2022-12-07T10:05:17;17.95;;;10.32;;
33246;SDS011;19606;50.108;19.804;2022-12-07T10:07:47;11.48;;;7.43;;
33246;SDS011;19606;50.108;19.804;2022-12-07T10:10:14;21.65;;;10.02;;
33246;SDS011;19606;50.108;19.804;2022-12-07T10:15:20;18.42;;;9.25;;
33246;SDS011;19606;50.108;19.804;2022-12-07T10:17:51;17.27;;;10.13;;
33246;SDS011;19606;50.108;19.804;2022-12-07T10:20:26;19.95;;;9.07;;
33246;SDS011;19606;50.108;19.804;2022-12-07T10:23:00;13.82;;;7.38;;
33246;SDS011;19606;50.108;19.804;2022-12-07T10:25:29;20.20;;;9.75;;
33246;SDS011;19606;50.108;19.804;2022-12-07T10:33:29;21.98;;;11.27;;
33246;SDS011;19606;50.108;19.804;2022-12-07T10:36:00;24.15;;;14.00;;
33246;SDS011;19606;50.108;19.804;2022-12-07T10:38:44;25.20;;;12.85;;
33246;SDS011;19606;50.108;19.804;2022-12-07T10:41:14;13.98;;;7.63;;
33246;SDS011;19606;50.108;19.804;2022-12-07T10:43:50;29.65;;;13.75;;
33246;SDS011;19606;50.108;19.804;2022-12-07T10:46:26;17.27;;;8.60;;
33246;SDS011;19606;50.108;19.804;2022-12-07T10:54:44;17.90;;;9.68;;
33246;SDS011;19606;50.108;19.804;2022-12-07T11:00:24;17.27;;;9.63;;
33246;SDS011;19606;50.108;19.804;2022-12-07T11:05:45;15.32;;;8.30;;
33246;SDS011;19606;50.108;19.804;2022-12-07T11:08:33;17.73;;;11.02;;
33246;SDS011;19606;50.108;19.804;2022-12-07T11:11:29;21.42;;;10.63;;
33246;SDS011;19606;50.108;19.804;2022-12-07T11:14:18;22.23;;;11.00;;
33246;SDS011;19606;50.108;19.804;2022-12-07T11:17:16;17.38;;;9.57;;
33246;SDS011;19606;50.108;19.804;2022-12-07T11:20:15;15.57;;;9.32;;
33246;SDS011;19606;50.108;19.804;2022-12-07T11:26:00;20.38;;;10.23;;
33246;SDS011;19606;50.108;19.804;2022-12-07T11:28:39;19.27;;;10.65;;
33246;SDS011;19606;50.108;19.804;2022-12-07T11:34:29;20.40;;;10.65;;
33246;SDS011;19606;50.108;19.804;2022-12-07T11:37:11;13.55;;;7.00;;
33246;SDS011;19606;50.108;19.804;2022-12-07T11:39:48;15.45;;;7.80;;
33246;SDS011;19606;50.108;19.804;2022-12-07T11:42:30;15.23;;;8.17;;
33246;SDS011;19606;50.108;19.804;2022-12-07T11:50:53;20.77;;;9.70;;
33246;SDS011;19606;50.108;19.804;2022-12-07T11:53:26;17.63;;;8.95;;
33246;SDS011;19606;50.108;19.804;2022-12-07T11:56:09;18.63;;;10.10;;
33246;SDS011;19606;50.108;19.804;2022-12-07T12:06:40;15.55;;;9.27;;
33246;SDS011;19606;50.108;19.804;2022-12-07T12:09:14;21.92;;;10.95;;
33246;SDS011;19606;50.108;19.804;2022-12-07T12:11:56;18.80;;;9.10;;
33246;SDS011;19606;50.108;19.804;2022-12-07T12:14:54;19.98;;;9.38;;
33246;SDS011;19606;50.108;19.804;2022-12-07T12:25:34;17.70;;;9.75;;
33246;SDS011;19606;50.108;19.804;2022-12-07T12:28:04;18.40;;;10.05;;
33246;SDS011;19606;50.108;19.804;2022-12-07T12:30:37;16.80;;;9.90;;
33246;SDS011;19606;50.108;19.804;2022-12-07T12:35:48;15.48;;;9.40;;
33246;SDS011;19606;50.108;19.804;2022-12-07T12:38:48;14.75;;;7.75;;
33246;SDS011;19606;50.108;19.804;2022-12-07T12:54:36;19.63;;;9.35;;
33246;SDS011;19606;50.108;19.804;2022-12-07T12:59:55;18.17;;;10.48;;
33246;SDS011;19606;50.108;19.804;2022-12-07T13:05:37;20.67;;;9.93;;
33246;SDS011;19606;50.108;19.804;2022-12-07T13:23:19;8.38;;;5.25;;
33246;SDS011;19606;50.108;19.804;2022-12-07T13:25:54;10.77;;;5.93;;
33246;SDS011;19606;50.108;19.804;2022-12-07T13:28:23;12.70;;;5.38;;
33246;SDS011;19606;50.108;19.804;2022-12-07T13:33:27;14.73;;;4.53;;
33246;SDS011;19606;50.108;19.804;2022-12-07T13:35:55;4.85;;;3.50;;
33246;SDS011;19606;50.108;19.804;2022-12-07T13:41:02;6.68;;;4.65;;
33246;SDS011;19606;50.108;19.804;2022-12-07T13:43:29;5.22;;;3.72;;
33246;SDS011;19606;50.108;19.804;2022-12-07T13:45:57;4.75;;;3.70;;
33246;SDS011;19606;50.108;19.804;2022-12-07T13:50:58;7.43;;;4.72;;
33246;SDS011;19606;50.108;19.804;2022-12-07T13:53:25;10.38;;;4.75;;
33246;SDS011;19606;50.108;19.804;2022-12-07T13:55:55;6.47;;;4.20;;
33246;SDS011;19606;50.108;19.804;2022-12-07T13:58:25;12.30;;;6.55;;
33246;SDS011;19606;50.108;19.804;2022-12-07T14:00:54;9.87;;;6.00;;
33246;SDS011;19606;50.108;19.804;2022-12-07T14:03:25;10.43;;;5.82;;
33246;SDS011;19606;50.108;19.804;2022-12-07T14:06:04;10.45;;;6.00;;
33246;SDS011;19606;50.108;19.804;2022-12-07T14:08:30;9.50;;;5.65;;
33246;SDS011;19606;50.108;19.804;2022-12-07T14:10:56;8.05;;;4.05;;
33246;SDS011;19606;50.108;19.804;2022-12-07T14:13:31;14.95;;;7.13;;
33246;SDS011;19606;50.108;19.804;2022-12-07T14:16:05;17.33;;;8.20;;
33246;SDS011;19606;50.108;19.804;2022-12-07T14:18:41;12.00;;;6.25;;
33246;SDS011;19606;50.108;19.804;2022-12-07T14:23:34;9.02;;;6.32;;
33246;SDS011;19606;50.108;19.804;2022-12-07T14:26:06;11.13;;;6.45;;
33246;SDS011;19606;50.108;19.804;2022-12-07T14:28:36;10.10;;;5.70;;
33246;SDS011;19606;50.108;19.804;2022-12-07T14:31:03;10.15;;;6.38;;
33246;SDS011;19606;50.108;19.804;2022-12-07T14:33:35;10.68;;;6.28;;
33246;SDS011;19606;50.108;19.804;2022-12-07T14:36:00;5.20;;;4.20;;
33246;SDS011;19606;50.108;19.804;2022-12-07T14:38:26;12.32;;;5.82;;
33246;SDS011;19606;50.108;19.804;2022-12-07T14:40:52;11.15;;;6.40;;
33246;SDS011;19606;50.108;19.804;2022-12-07T14:43:19;13.15;;;6.97;;
33246;SDS011;19606;50.108;19.804;2022-12-07T14:45:45;10.23;;;5.97;;
33246;SDS011;19606;50.108;19.804;2022-12-07T14:48:12;10.55;;;5.60;;
33246;SDS011;19606;50.108;19.804;2022-12-07T14:50:43;15.38;;;6.97;;
33246;SDS011;19606;50.108;19.804;2022-12-07T14:53:13;12.95;;;7.07;;
33246;SDS011;19606;50.108;19.804;2022-12-07T14:55:41;15.68;;;8.45;;
33246;SDS011;19606;50.108;19.804;2022-12-07T14:58:10;14.63;;;6.85;;
33246;SDS011;19606;50.108;19.804;2022-12-07T15:00:41;17.17;;;8.57;;
33246;SDS011;19606;50.108;19.804;2022-12-07T15:03:07;9.27;;;5.82;;
33246;SDS011;19606;50.108;19.804;2022-12-07T15:05:33;11.40;;;6.53;;
33246;SDS011;19606;50.108;19.804;2022-12-07T15:07:59;13.65;;;7.18;;
33246;SDS011;19606;50.108;19.804;2022-12-07T15:10:26;12.30;;;7.50;;
33246;SDS011;19606;50.108;19.804;2022-12-07T15:12:55;13.25;;;7.63;;
33246;SDS011;19606;50.108;19.804;2022-12-07T15:15:41;11.95;;;7.43;;
33246;SDS011;19606;50.108;19.804;2022-12-07T15:18:07;15.23;;;8.50;;
33246;SDS011;19606;50.108;19.804;2022-12-07T15:20:33;11.45;;;7.53;;
33246;SDS011;19606;50.108;19.804;2022-12-07T15:22:58;16.40;;;8.23;;
33246;SDS011;19606;50.108;19.804;2022-12-07T15:25:24;16.88;;;10.05;;
33246;SDS011;19606;50.108;19.804;2022-12-07T15:27:50;17.02;;;10.10;;
33246;SDS011;19606;50.108;19.804;2022-12-07T15:30:15;17.02;;;9.20;;
33246;SDS011;19606;50.108;19.804;2022-12-07T15:32:41;20.48;;;10.00;;
33246;SDS011;19606;50.108;19.804;2022-12-07T15:35:07;19.58;;;11.32;;
33246;SDS011;19606;50.108;19.804;2022-12-07T15:37:33;20.08;;;10.50;;
33246;SDS011;19606;50.108;19.804;2022-12-07T15:39:59;17.13;;;8.25;;
33246;SDS011;19606;50.108;19.804;2022-12-07T15:42:24;15.23;;;8.02;;
33246;SDS011;19606;50.108;19.804;2022-12-07T15:44:50;19.85;;;9.77;;
33246;SDS011;19606;50.108;19.804;2022-12-07T15:47:41;21.75;;;10.00;;
33246;SDS011;19606;50.108;19.804;2022-12-07T15:50:09;17.27;;;8.88;;
33246;SDS011;19606;50.108;19.804;2022-12-07T15:52:37;20.10;;;10.88;;
33246;SDS011;19606;50.108;19.804;2022-12-07T15:55:03;22.48;;;12.30;;
33246;SDS011;19606;50.108;19.804;2022-12-07T15:57:30;22.00;;;11.38;;
33246;SDS011;19606;50.108;19.804;2022-12-07T15:59:57;27.67;;;13.02;;
33246;SDS011;19606;50.108;19.804;2022-12-07T16:02:23;24.90;;;12.65;;
33246;SDS011;19606;50.108;19.804;2022-12-07T16:04:49;21.25;;;10.57;;
33246;SDS011;19606;50.108;19.804;2022-12-07T16:07:15;21.45;;;9.73;;
33246;SDS011;19606;50.108;19.804;2022-12-07T16:09:42;25.52;;;15.32;;
33246;SDS011;19606;50.108;19.804;2022-12-07T16:12:09;22.50;;;12.38;;
33246;SDS011;19606;50.108;19.804;2022-12-07T16:14:35;24.95;;;12.95;;
33246;SDS011;19606;50.108;19.804;2022-12-07T16:17:01;22.20;;;12.98;;
33246;SDS011;19606;50.108;19.804;2022-12-07T16:19:27;20.92;;;10.45;;
33246;SDS011;19606;50.108;19.804;2022-12-07T16:21:53;18.27;;;10.30;;
33246;SDS011;19606;50.108;19.804;2022-12-07T16:24:18;19.10;;;8.02;;
33246;SDS011;19606;50.108;19.804;2022-12-07T16:26:45;26.70;;;15.55;;
33246;SDS011;19606;50.108;19.804;2022-12-07T16:29:11;23.17;;;10.15;;
33246;SDS011;19606;50.108;19.804;2022-12-07T16:31:37;21.00;;;11.27;;
33246;SDS011;19606;50.108;19.804;2022-12-07T16:34:03;24.98;;;12.65;;
33246;SDS011;19606;50.108;19.804;2022-12-07T16:36:29;29.88;;;15.90;;
33246;SDS011;19606;50.108;19.804;2022-12-07T16:38:54;22.15;;;9.48;;
33246;SDS011;19606;50.108;19.804;2022-12-07T16:41:20;23.25;;;14.40;;
33246;SDS011;19606;50.108;19.804;2022-12-07T16:43:46;23.52;;;13.10;;
33246;SDS011;19606;50.108;19.804;2022-12-07T16:46:12;28.75;;;15.43;;